Time;durP1;ratioP1;P1;durP2;ratioP2;P2;SDS_P1;SDS_P2;PMS_P1;PMS_P2;Temp;Humidity;BMP_temperature;BMP_pressure;BME280_temperature;BME280_humidity;BME280_pressure;Samples;Min_cycle;Max_cycle;Signal;HPM_P1;HPM_P2
2021/10/23 00:00:25;;;;;;;2.00;1.10;;;;;;;;;;5018360;28;20117;-48
2021/10/23 00:02:51;;;;;;;1.37;1.20;;;;;;;;;;5011999;28;20117;-51
2021/10/23 00:05:16;;;;;;;2.60;1.40;;;;;;;;;;4993900;28;20034;-49
2021/10/23 00:07:41;;;;;;;3.17;1.60;;;;;;;;;;5011643;28;20025;-48
2021/10/23 00:10:07;;;;;;;3.93;1.30;;;;;;;;;;5012499;28;20061;-48
2021/10/23 00:12:33;;;;;;;2.47;1.50;;;;;;;;;;5011750;28;20026;-52
2021/10/23 00:14:58;;;;;;;2.45;1.25;;;;;;;;;;5027106;28;20040;-52
2021/10/23 00:17:24;;;;;;;1.83;1.27;;;;;;;;;;5031069;28;20029;-51
2021/10/23 00:19:49;;;;;;;2.00;1.37;;;;;;;;;;5024844;28;20451;-51
2021/10/23 00:22:14;;;;;;;3.63;1.50;;;;;;;;;;5027143;28;20036;-48
2021/10/23 00:24:40;;;;;;;1.40;1.30;;;;;;;;;;5020737;28;20030;-48
2021/10/23 00:27:05;;;;;;;2.73;1.43;;;;;;;;;;5011569;28;20048;-49
2021/10/23 00:29:31;;;;;;;2.57;1.60;;;;;;;;;;5012642;28;20021;-48
2021/10/23 00:31:56;;;;;;;3.13;1.50;;;;;;;;;;5011463;28;20029;-50
2021/10/23 00:34:21;;;;;;;2.43;1.20;;;;;;;;;;5011617;28;20044;-48
2021/10/23 00:36:47;;;;;;;3.10;1.53;;;;;;;;;;5011635;28;20049;-48
2021/10/23 00:39:12;;;;;;;3.17;1.73;;;;;;;;;;5011923;28;20026;-49
2021/10/23 00:41:39;;;;;;;3.27;1.43;;;;;;;;;;5031196;28;20113;-48
2021/10/23 00:44:04;;;;;;;;;;;;;;;;;;5031297;28;20022;-45
2021/10/23 00:46:29;;;;;;;3.17;1.47;;;;;;;;;;5031122;28;19920;-49
2021/10/23 00:48:55;;;;;;;1.83;1.43;;;;;;;;;;5035706;28;20049;-48
2021/10/23 00:51:20;;;;;;;2.57;1.60;;;;;;;;;;5049213;28;20051;-49
2021/10/23 00:53:46;;;;;;;2.07;1.60;;;;;;;;;;5050959;28;20074;-51
2021/10/23 00:56:12;;;;;;;4.87;1.50;;;;;;;;;;5036373;28;20082;-51
2021/10/23 00:58:38;;;;;;;2.50;1.30;;;;;;;;;;5031028;28;20032;-48
2021/10/23 01:01:03;;;;;;;2.13;1.30;;;;;;;;;;5045940;28;20045;-48
2021/10/23 01:03:29;;;;;;;2.43;1.40;;;;;;;;;;5050792;28;20025;-48
2021/10/23 01:05:54;;;;;;;2.20;1.37;;;;;;;;;;5041245;28;20037;-50
2021/10/23 01:08:20;;;;;;;2.80;1.60;;;;;;;;;;5030744;28;20029;-52
2021/10/23 01:10:45;;;;;;;3.50;1.63;;;;;;;;;;5043361;28;20110;-49
2021/10/23 01:13:11;;;;;;;2.20;1.70;;;;;;;;;;5050790;28;20025;-51
2021/10/23 01:15:36;;;;;;;2.47;1.47;;;;;;;;;;5050589;28;20027;-51
2021/10/23 01:18:03;;;;;;;1.67;1.20;;;;;;;;;;5050727;28;20021;-52
2021/10/23 01:20:30;;;;;;;3.28;1.70;;;;;;;;;;5049053;28;20079;-48
2021/10/23 01:22:56;;;;;;;3.05;1.63;;;;;;;;;;5053977;28;20562;-48
2021/10/23 01:25:22;;;;;;;2.67;1.80;;;;;;;;;;5054511;28;20028;-49
2021/10/23 01:27:48;;;;;;;3.45;1.52;;;;;;;;;;5053964;28;20025;-48
2021/10/23 01:30:14;;;;;;;3.50;1.70;;;;;;;;;;5046319;28;20048;-48
2021/10/23 01:32:40;;;;;;;1.97;1.37;;;;;;;;;;5034467;28;20052;-48
2021/10/23 01:35:06;;;;;;;3.83;1.53;;;;;;;;;;5035466;28;20104;-50
2021/10/23 01:37:35;;;;;;;3.23;1.47;;;;;;;;;;5034065;28;20025;-51
2021/10/23 01:40:01;;;;;;;2.50;1.63;;;;;;;;;;5035261;28;20493;-48
2021/10/23 01:42:26;;;;;;;4.30;1.77;;;;;;;;;;5016423;28;20096;-48
2021/10/23 01:44:52;;;;;;;1.97;1.30;;;;;;;;;;5034279;28;20028;-52
2021/10/23 01:47:17;;;;;;;2.50;1.50;;;;;;;;;;5042875;28;20029;-51
2021/10/23 01:49:43;;;;;;;2.13;1.57;;;;;;;;;;5050131;28;20136;-50
2021/10/23 01:52:09;;;;;;;3.47;1.53;;;;;;;;;;5034010;28;20048;-51
2021/10/23 01:54:34;;;;;;;2.80;1.53;;;;;;;;;;5033940;28;20128;-50
2021/10/23 01:57:00;;;;;;;2.80;1.50;;;;;;;;;;5035125;28;20037;-48
2021/10/23 01:59:25;;;;;;;4.03;1.60;;;;;;;;;;5033911;28;20438;-51
2021/10/23 02:01:50;;;;;;;2.30;1.73;;;;;;;;;;5034662;28;20045;-48
2021/10/23 02:04:17;;;;;;;2.97;1.70;;;;;;;;;;5033620;28;20032;-49
2021/10/23 02:06:42;;;;;;;3.23;1.37;;;;;;;;;;5035063;28;20021;-49
2021/10/23 02:09:07;;;;;;;1.20;1.00;;;;;;;;;;5047523;28;20377;-51
2021/10/23 02:11:33;;;;;;;2.13;1.50;;;;;;;;;;5016591;28;20399;-51
2021/10/23 02:13:58;;;;;;;2.47;1.40;;;;;;;;;;5050675;28;20403;-51
2021/10/23 02:16:23;;;;;;;3.03;1.33;;;;;;;;;;5053845;28;20025;-49
2021/10/23 02:18:49;;;;;;;2.23;1.20;;;;;;;;;;5053164;28;20116;-52
2021/10/23 02:21:14;;;;;;;2.33;1.33;;;;;;;;;;5034163;28;20100;-48
2021/10/23 02:23:39;;;;;;;2.63;1.40;;;;;;;;;;5033290;28;20033;-51
2021/10/23 02:26:05;;;;;;;2.33;1.50;;;;;;;;;;5033378;28;20026;-48
2021/10/23 02:28:30;;;;;;;3.60;2.03;;;;;;;;;;5033127;28;20025;-48
2021/10/23 02:30:56;;;;;;;1.37;1.27;;;;;;;;;;5037636;28;20021;-51
2021/10/23 02:33:21;;;;;;;2.67;1.50;;;;;;;;;;5053008;28;20112;-47
2021/10/23 02:35:47;;;;;;;2.28;1.50;;;;;;;;;;5035671;28;20107;-50
2021/10/23 02:38:12;;;;;;;2.67;1.70;;;;;;;;;;5035112;28;20476;-47
2021/10/23 02:40:38;;;;;;;2.60;1.43;;;;;;;;;;5022167;28;20033;-51
2021/10/23 02:43:04;;;;;;;3.27;1.40;;;;;;;;;;5033129;28;20439;-49
2021/10/23 02:45:30;;;;;;;2.30;1.55;;;;;;;;;;5032907;28;20462;-49
2021/10/23 02:47:55;;;;;;;2.70;1.30;;;;;;;;;;5032884;28;20100;-51
2021/10/23 02:50:21;;;;;;;2.03;1.50;;;;;;;;;;5033744;28;20492;-51
2021/10/23 02:52:46;;;;;;;2.25;1.50;;;;;;;;;;5032976;28;20052;-50
2021/10/23 02:55:11;;;;;;;2.10;1.37;;;;;;;;;;5039517;28;20506;-50
2021/10/23 02:57:37;;;;;;;2.57;1.50;;;;;;;;;;5051747;28;20107;-50
2021/10/23 03:00:04;;;;;;;1.77;1.30;;;;;;;;;;5043865;28;20026;-49
2021/10/23 03:02:29;;;;;;;;;;;;;;;;;;5033186;28;20029;-49
2021/10/23 03:04:54;;;;;;;2.63;1.40;;;;;;;;;;5032489;28;19916;-49
2021/10/23 03:07:20;;;;;;;2.23;1.47;;;;;;;;;;5014932;28;20029;-49
2021/10/23 03:09:45;;;;;;;1.73;1.17;;;;;;;;;;5019205;28;20025;-48
2021/10/23 03:12:10;;;;;;;2.93;1.47;;;;;;;;;;5052376;28;20027;-49
2021/10/23 03:14:36;;;;;;;2.17;1.27;;;;;;;;;;5052191;28;20384;-48
2021/10/23 03:17:02;;;;;;;1.63;1.17;;;;;;;;;;5052262;28;20166;-47
2021/10/23 03:19:27;;;;;;;2.33;1.17;;;;;;;;;;5050294;28;20082;-51
2021/10/23 03:21:52;;;;;;;2.40;1.27;;;;;;;;;;5052309;28;20051;-49
2021/10/23 03:24:18;;;;;;;1.67;1.10;;;;;;;;;;5052002;28;20466;-50
2021/10/23 03:26:43;;;;;;;2.20;1.33;;;;;;;;;;5052131;28;20099;-48
2021/10/23 03:29:08;;;;;;;2.40;1.27;;;;;;;;;;5033908;28;20403;-48
2021/10/23 03:31:34;;;;;;;1.50;1.00;;;;;;;;;;5032708;28;20440;-49
2021/10/23 03:33:59;;;;;;;1.30;1.10;;;;;;;;;;5038821;28;20033;-49
2021/10/23 03:36:25;;;;;;;2.17;1.23;;;;;;;;;;5051655;28;20100;-49
2021/10/23 03:38:50;;;;;;;4.10;2.13;;;;;;;;;;5051666;28;20028;-49
2021/10/23 03:41:16;;;;;;;2.43;1.30;;;;;;;;;;5032298;28;20132;-48
2021/10/23 03:43:41;;;;;;;3.33;1.20;;;;;;;;;;5047738;28;20518;-51
2021/10/23 03:46:06;;;;;;;2.97;0.97;;;;;;;;;;5033142;28;20036;-53
2021/10/23 03:48:32;;;;;;;2.90;1.27;;;;;;;;;;5051523;28;20032;-51
2021/10/23 03:50:57;;;;;;;1.93;1.17;;;;;;;;;;5032221;28;20056;-51
2021/10/23 03:53:22;;;;;;;1.20;1.10;;;;;;;;;;5051668;28;20026;-52
2021/10/23 03:55:48;;;;;;;1.80;1.17;;;;;;;;;;5051521;28;20025;-51
2021/10/23 03:58:13;;;;;;;2.03;1.10;;;;;;;;;;5033229;28;20079;-48
2021/10/23 04:00:39;;;;;;;1.17;1.02;;;;;;;;;;5031546;28;20342;-50
2021/10/23 04:03:04;;;;;;;2.13;1.10;;;;;;;;;;5032634;28;20025;-48
2021/10/23 04:05:30;;;;;;;1.40;1.00;;;;;;;;;;5031378;28;20500;-48
2021/10/23 04:07:55;;;;;;;2.83;1.10;;;;;;;;;;5046845;28;20443;-48
2021/10/23 04:10:20;;;;;;;1.87;1.37;;;;;;;;;;5044530;28;20047;-48
2021/10/23 04:12:46;;;;;;;1.60;1.10;;;;;;;;;;5026493;28;20584;-47
2021/10/23 04:15:11;;;;;;;2.37;0.97;;;;;;;;;;5051063;28;20028;-48
2021/10/23 04:17:36;;;;;;;2.20;1.00;;;;;;;;;;5051169;28;20049;-47
2021/10/23 04:20:03;;;;;;;1.70;1.10;;;;;;;;;;5044131;28;20369;-48
2021/10/23 04:22:28;;;;;;;2.45;1.50;;;;;;;;;;5031590;28;20027;-47
2021/10/23 04:24:53;;;;;;;1.63;1.00;;;;;;;;;;5031543;28;20025;-47
2021/10/23 04:27:19;;;;;;;1.40;0.98;;;;;;;;;;5031442;28;20052;-48
2021/10/23 04:29:44;;;;;;;1.13;1.00;;;;;;;;;;5032280;28;20126;-47
2021/10/23 04:32:10;;;;;;;2.13;1.17;;;;;;;;;;5031073;28;20034;-47
2021/10/23 04:34:36;;;;;;;1.17;0.90;;;;;;;;;;5032301;28;20120;-49
2021/10/23 04:37:02;;;;;;;2.33;1.00;;;;;;;;;;5031106;28;20021;-48
2021/10/23 04:39:28;;;;;;;0.73;0.73;;;;;;;;;;5031176;28;20048;-47
2021/10/23 04:41:53;;;;;;;1.42;0.98;;;;;;;;;;5032055;28;20033;-48
2021/10/23 04:44:19;;;;;;;1.63;1.10;;;;;;;;;;5013388;28;20037;-47
2021/10/23 04:46:44;;;;;;;2.03;1.17;;;;;;;;;;5050020;28;20517;-47
2021/10/23 04:49:10;;;;;;;2.70;1.00;;;;;;;;;;5050752;28;20045;-49
2021/10/23 04:51:35;;;;;;;3.25;1.30;;;;;;;;;;5049333;28;20492;-47
2021/10/23 04:54:00;;;;;;;1.83;1.00;;;;;;;;;;5051026;28;20043;-47
2021/10/23 04:56:26;;;;;;;1.47;0.93;;;;;;;;;;5035323;28;20037;-49
2021/10/23 04:58:51;;;;;;;1.57;0.90;;;;;;;;;;5034889;28;20044;-48
2021/10/23 05:01:16;;;;;;;1.80;1.13;;;;;;;;;;5034700;28;20101;-50
2021/10/23 05:03:42;;;;;;;2.57;1.07;;;;;;;;;;5036005;28;20029;-48
2021/10/23 05:06:07;;;;;;;1.30;1.20;;;;;;;;;;5048148;28;20416;-51
2021/10/23 05:08:32;;;;;;;2.07;1.10;;;;;;;;;;5036801;28;20349;-49
2021/10/23 05:10:58;;;;;;;1.97;1.10;;;;;;;;;;5049073;28;20026;-47
2021/10/23 05:13:23;;;;;;;1.63;1.10;;;;;;;;;;5036897;28;20033;-50
2021/10/23 05:15:48;;;;;;;2.03;1.53;;;;;;;;;;5054615;28;20063;-50
2021/10/23 05:18:14;;;;;;;2.37;1.10;;;;;;;;;;5054459;28;20075;-51
2021/10/23 05:20:39;;;;;;;1.67;1.35;;;;;;;;;;5054585;28;20075;-50
2021/10/23 05:23:04;;;;;;;2.37;1.20;;;;;;;;;;5035867;28;20555;-49
2021/10/23 05:25:30;;;;;;;2.33;1.43;;;;;;;;;;5034659;28;20032;-51
2021/10/23 05:27:55;;;;;;;2.83;1.10;;;;;;;;;;5034409;28;20481;-50
2021/10/23 05:30:21;;;;;;;1.67;1.20;;;;;;;;;;5039692;28;20104;-50
2021/10/23 05:32:46;;;;;;;2.67;1.30;;;;;;;;;;5041059;28;20473;-50
2021/10/23 05:35:11;;;;;;;1.57;1.27;;;;;;;;;;5034419;28;20496;-47
2021/10/23 05:37:37;;;;;;;1.70;1.20;;;;;;;;;;5035754;28;20028;-49
2021/10/23 05:40:03;;;;;;;1.63;1.40;;;;;;;;;;5054123;28;20155;-51
2021/10/23 05:42:28;;;;;;;1.42;1.10;;;;;;;;;;5054172;28;20058;-48
2021/10/23 05:44:53;;;;;;;1.83;1.10;;;;;;;;;;5036140;28;20028;-50
2021/10/23 05:47:19;;;;;;;1.80;1.00;;;;;;;;;;5054029;28;20087;-47
2021/10/23 05:49:44;;;;;;;2.53;1.10;;;;;;;;;;5034469;28;20049;-48
2021/10/23 05:52:10;;;;;;;2.55;1.30;;;;;;;;;;5033830;28;20124;-50
2021/10/23 05:54:38;;;;;;;1.30;1.20;;;;;;;;;;5034096;28;20053;-50
2021/10/23 05:57:10;;;;;;;2.75;1.30;;;;;;;;;;5033896;28;20033;-50
2021/10/23 05:59:44;;;;;;;1.98;1.20;;;;;;;;;;5033690;28;20083;-51
2021/10/23 06:02:22;;;;;;;1.83;1.23;;;;;;;;;;5040081;28;20067;-47
2021/10/23 06:04:51;;;;;;;2.50;1.52;;;;;;;;;;5037773;28;20057;-48
2021/10/23 06:07:17;;;;;;;2.70;1.20;;;;;;;;;;5036353;28;20021;-50
2021/10/23 06:09:43;;;;;;;1.23;1.13;;;;;;;;;;5037342;28;20103;-51
2021/10/23 06:12:09;;;;;;;1.20;1.00;;;;;;;;;;5051682;28;20029;-52
2021/10/23 06:14:34;;;;;;;3.53;1.37;;;;;;;;;;5042655;28;20026;-51
2021/10/23 06:17:00;;;;;;;2.17;1.25;;;;;;;;;;5033453;28;20503;-51
2021/10/23 06:19:25;;;;;;;2.57;1.20;;;;;;;;;;5033243;28;20088;-51
2021/10/23 06:21:50;;;;;;;2.90;1.40;;;;;;;;;;5025759;28;20132;-47
2021/10/23 06:24:16;;;;;;;3.40;1.30;;;;;;;;;;5044126;28;20033;-49
2021/10/23 06:26:41;;;;;;;3.88;1.33;;;;;;;;;;5032389;28;20440;-50
2021/10/23 06:29:06;;;;;;;2.25;1.55;;;;;;;;;;5032043;28;20105;-50
2021/10/23 06:31:32;;;;;;;2.87;1.20;;;;;;;;;;5015580;28;20025;-50
2021/10/23 06:33:57;;;;;;;2.67;1.43;;;;;;;;;;5035639;28;20108;-49
2021/10/23 06:36:22;;;;;;;2.50;1.63;;;;;;;;;;5032588;28;20056;-50
2021/10/23 06:38:48;;;;;;;3.17;1.60;;;;;;;;;;5033106;28;20029;-49
2021/10/23 06:41:13;;;;;;;3.70;1.40;;;;;;;;;;5033103;28;20022;-50
2021/10/23 06:43:38;;;;;;;1.83;1.30;;;;;;;;;;5032909;28;20036;-50
2021/10/23 06:46:04;;;;;;;2.00;1.20;;;;;;;;;;5040268;28;20492;-47
2021/10/23 06:48:29;;;;;;;2.57;1.43;;;;;;;;;;5033037;28;20451;-48
2021/10/23 06:50:55;;;;;;;3.20;1.50;;;;;;;;;;5033070;28;20021;-49
2021/10/23 06:53:20;;;;;;;3.43;1.40;;;;;;;;;;5032887;28;20560;-51
2021/10/23 06:55:45;;;;;;;1.52;1.40;;;;;;;;;;5033917;28;20517;-51
2021/10/23 06:58:11;;;;;;;3.17;1.73;;;;;;;;;;5045483;28;20111;-51
2021/10/23 07:00:36;;;;;;;2.17;1.50;;;;;;;;;;5034906;28;20367;-51
2021/10/23 07:03:02;;;;;;;3.57;1.70;;;;;;;;;;5053058;28;20048;-50
2021/10/23 07:05:28;;;;;;;3.15;1.70;;;;;;;;;;5051004;28;20394;-48
2021/10/23 07:07:53;;;;;;;2.67;1.63;;;;;;;;;;5035838;28;20018;-48
2021/10/23 07:10:19;;;;;;;3.25;1.45;;;;;;;;;;5032551;28;20026;-51
2021/10/23 07:12:44;;;;;;;3.00;1.50;;;;;;;;;;5032504;28;20033;-48
2021/10/23 07:15:10;;;;;;;5.82;1.88;;;;;;;;;;5032421;28;20029;-48
2021/10/23 07:17:35;;;;;;;4.90;1.47;;;;;;;;;;5015684;28;20036;-47
2021/10/23 07:20:00;;;;;;;2.80;1.80;;;;;;;;;;5045770;28;20040;-47
2021/10/23 07:22:26;;;;;;;5.77;1.80;;;;;;;;;;5052297;28;20036;-48
2021/10/23 07:24:51;;;;;;;4.20;1.70;;;;;;;;;;5051297;28;20041;-49
2021/10/23 07:27:17;;;;;;;3.10;1.70;;;;;;;;;;5027950;28;20029;-47
2021/10/23 07:29:42;;;;;;;3.53;2.15;;;;;;;;;;5043685;28;20609;-47
2021/10/23 07:32:08;;;;;;;4.40;1.50;;;;;;;;;;5052225;28;20029;-48
2021/10/23 07:34:34;;;;;;;4.03;1.57;;;;;;;;;;5052003;28;20398;-46
2021/10/23 07:36:59;;;;;;;5.15;1.65;;;;;;;;;;5051617;28;20057;-47
2021/10/23 07:39:24;;;;;;;3.30;2.00;;;;;;;;;;5038880;28;20017;-47
2021/10/23 07:41:50;;;;;;;3.20;1.70;;;;;;;;;;5033552;28;20496;-48
2021/10/23 07:44:15;;;;;;;5.53;1.60;;;;;;;;;;5030928;28;20109;-47
2021/10/23 07:46:40;;;;;;;2.57;1.57;;;;;;;;;;5044789;28;20111;-47
2021/10/23 07:49:07;;;;;;;4.37;1.67;;;;;;;;;;5024368;28;20095;-47
2021/10/23 07:51:39;;;;;;;3.45;1.77;;;;;;;;;;5019363;28;20040;-48
2021/10/23 07:54:05;;;;;;;6.15;2.00;;;;;;;;;;5027173;28;20052;-49
2021/10/23 07:56:32;;;;;;;7.17;1.93;;;;;;;;;;5020858;28;20108;-47
2021/10/23 07:58:57;;;;;;;4.28;1.80;;;;;;;;;;5047896;28;20031;-50
2021/10/23 08:01:22;;;;;;;2.63;1.70;;;;;;;;;;5025540;28;20077;-47
2021/10/23 08:03:48;;;;;;;3.88;1.73;;;;;;;;;;5043502;28;20565;-49
2021/10/23 08:06:13;;;;;;;3.57;2.03;;;;;;;;;;5029731;28;20104;-47
2021/10/23 08:08:39;;;;;;;2.97;1.80;;;;;;;;;;5037189;28;20025;-48
2021/10/23 08:11:04;;;;;;;4.87;1.70;;;;;;;;;;5032275;28;20458;-49
2021/10/23 08:13:30;;;;;;;2.70;1.90;;;;;;;;;;5044893;28;20021;-50
2021/10/23 08:15:56;;;;;;;4.70;1.65;;;;;;;;;;5050247;28;20025;-48
2021/10/23 08:18:23;;;;;;;4.27;1.83;;;;;;;;;;5051129;28;20091;-47
2021/10/23 08:20:48;;;;;;;;;;;;;;;;;;5026353;28;20013;-52
2021/10/23 08:23:14;;;;;;;5.57;1.93;;;;;;;;;;5026010;28;20442;-48
2021/10/23 08:25:39;;;;;;;5.83;2.40;;;;;;;;;;5031090;28;20025;-50
2021/10/23 08:28:05;;;;;;;5.53;2.50;;;;;;;;;;5031486;28;20017;-48
2021/10/23 08:30:30;;;;;;;5.83;2.50;;;;;;;;;;5036908;28;20443;-47
2021/10/23 08:32:56;;;;;;;5.90;2.67;;;;;;;;;;5037306;28;20542;-50
2021/10/23 08:35:22;;;;;;;6.77;3.10;;;;;;;;;;5004017;28;20475;-50
2021/10/23 08:37:47;;;;;;;5.33;3.00;;;;;;;;;;5038412;28;20017;-48
2021/10/23 08:40:13;;;;;;;7.57;2.87;;;;;;;;;;5013754;28;20029;-48
2021/10/23 08:42:39;;;;;;;5.57;2.72;;;;;;;;;;5034756;28;20060;-49
2021/10/23 08:45:06;;;;;;;5.47;3.20;;;;;;;;;;5032752;28;20085;-49
2021/10/23 08:47:34;;;;;;;4.40;2.70;;;;;;;;;;5045249;28;20132;-49
2021/10/23 08:50:01;;;;;;;8.88;2.65;;;;;;;;;;5041803;28;20421;-48
2021/10/23 08:52:27;;;;;;;4.65;2.38;;;;;;;;;;5029177;28;20040;-48
2021/10/23 08:54:53;;;;;;;4.90;2.75;;;;;;;;;;5031382;28;20021;-48
2021/10/23 08:57:19;;;;;;;5.90;2.47;;;;;;;;;;5035002;28;20167;-48
2021/10/23 08:59:44;;;;;;;8.47;2.93;;;;;;;;;;5049421;28;20021;-47
2021/10/23 09:02:10;;;;;;;4.97;2.87;;;;;;;;;;5034301;28;20065;-50
2021/10/23 09:04:36;;;;;;;8.10;2.83;;;;;;;;;;5030963;28;20034;-49
2021/10/23 09:07:05;;;;;;;6.23;2.63;;;;;;;;;;5030759;28;20456;-49
2021/10/23 09:09:30;;;;;;;5.28;2.42;;;;;;;;;;5048425;28;20021;-50
2021/10/23 09:11:55;;;;;;;6.70;2.60;;;;;;;;;;5048580;28;20044;-52
2021/10/23 09:14:31;;;;;;;5.20;2.50;;;;;;;;;;5048649;28;20036;-49
2021/10/23 09:17:09;;;;;;;5.45;2.33;;;;;;;;;;5043144;28;20021;-50
2021/10/23 09:19:35;;;;;;;4.95;2.55;;;;;;;;;;5012697;28;20076;-52
2021/10/23 09:22:02;;;;;;;5.17;2.37;;;;;;;;;;5033267;28;20028;-50
2021/10/23 09:24:27;;;;;;;3.53;2.03;;;;;;;;;;5048277;28;20025;-50
2021/10/23 09:26:53;;;;;;;5.33;2.43;;;;;;;;;;5029772;28;20101;-50
2021/10/23 09:29:20;;;;;;;5.80;2.23;;;;;;;;;;5028420;28;20029;-49
2021/10/23 09:31:46;;;;;;;;;;;;;;;;;;5028151;28;20026;-54
2021/10/23 09:34:12;;;;;;;2.72;2.10;;;;;;;;;;5042732;28;20398;-53
2021/10/23 09:36:51;;;;;;;5.32;2.35;;;;;;;;;;5028180;28;20035;-53
2021/10/23 09:39:23;;;;;;;3.17;2.20;;;;;;;;;;5028379;28;20511;-53
2021/10/23 09:42:04;;;;;;;3.05;2.17;;;;;;;;;;5028826;28;20053;-50
2021/10/23 09:44:29;;;;;;;4.47;2.30;;;;;;;;;;5030822;28;20025;-55
2021/10/23 09:46:54;;;;;;;5.33;2.40;;;;;;;;;;5031621;28;20031;-55
2021/10/23 09:49:21;;;;;;;3.23;2.00;;;;;;;;;;5032789;28;20073;-49
2021/10/23 09:51:46;;;;;;;2.85;2.03;;;;;;;;;;5033886;28;20049;-49
2021/10/23 09:54:15;;;;;;;6.10;2.23;;;;;;;;;;5039549;28;20466;-52
2021/10/23 09:56:48;;;;;;;4.35;2.35;;;;;;;;;;5042097;28;20029;-50
2021/10/23 09:59:24;;;;;;;1.88;1.50;;;;;;;;;;5033851;28;20077;-49
2021/10/23 10:01:50;;;;;;;3.50;2.27;;;;;;;;;;5034698;28;20084;-50
2021/10/23 10:04:16;;;;;;;4.37;2.20;;;;;;;;;;5033674;28;20135;-54
2021/10/23 10:06:45;;;;;;;4.03;2.10;;;;;;;;;;5050939;28;20726;-52
2021/10/23 10:09:11;;;;;;;3.97;1.90;;;;;;;;;;5040735;28;20383;-54
2021/10/23 10:11:38;;;;;;;3.23;2.03;;;;;;;;;;5038708;28;20538;-50
2021/10/23 10:14:06;;;;;;;2.80;1.90;;;;;;;;;;5046285;28;20079;-54
2021/10/23 10:16:32;;;;;;;4.32;1.80;;;;;;;;;;5030254;28;20018;-52
2021/10/23 10:18:58;;;;;;;3.90;2.00;;;;;;;;;;5031680;28;20033;-52
2021/10/23 10:21:24;;;;;;;3.73;2.10;;;;;;;;;;5046840;28;20542;-52
2021/10/23 10:23:52;;;;;;;5.00;2.20;;;;;;;;;;5051323;28;20044;-50
2021/10/23 10:26:24;;;;;;;5.00;2.33;;;;;;;;;;5031849;28;20440;-55
2021/10/23 10:29:08;;;;;;;3.05;1.40;;;;;;;;;;5027411;28;20163;-50
2021/10/23 10:32:07;;;;;;;4.00;1.58;;;;;;;;;;5030001;28;20582;-52
2021/10/23 10:38:09;;;;;;;4.35;1.75;;;;;;;;;;5032968;28;20080;-53
2021/10/23 10:40:30;;;;;;;3.75;2.03;;;;;;;;;;5020855;28;20028;-53
2021/10/23 10:42:56;;;;;;;2.88;1.75;;;;;;;;;;5052257;28;20033;-50
2021/10/23 10:45:22;;;;;;;;;;;;;;;;;;5051725;28;20037;-52
2021/10/23 10:48:06;;;;;;;2.20;1.70;;;;;;;;;;5051086;28;20003;-49
2021/10/23 10:50:34;;;;;;;2.97;1.95;;;;;;;;;;5024336;28;20049;-51
2021/10/23 10:53:11;;;;;;;2.80;1.75;;;;;;;;;;5031261;28;20112;-48
2021/10/23 10:55:38;;;;;;;1.90;1.52;;;;;;;;;;5030449;28;20021;-49
2021/10/23 10:58:09;;;;;;;2.95;1.77;;;;;;;;;;5028849;28;20028;-50
2021/10/23 11:00:46;;;;;;;4.07;1.75;;;;;;;;;;5032249;28;20052;-49
2021/10/23 11:03:31;;;;;;;2.58;1.60;;;;;;;;;;5032790;28;20056;-49
2021/10/23 11:05:57;;;;;;;2.53;1.98;;;;;;;;;;5029248;28;20026;-49
2021/10/23 11:08:24;;;;;;;2.65;1.75;;;;;;;;;;5032258;28;20026;-49
2021/10/23 11:10:56;;;;;;;2.47;1.60;;;;;;;;;;5003164;28;20454;-49
2021/10/23 11:13:24;;;;;;;2.35;1.70;;;;;;;;;;5012654;28;20021;-51
2021/10/23 11:15:49;;;;;;;2.75;1.98;;;;;;;;;;5013780;28;20037;-49
2021/10/23 11:18:16;;;;;;;3.27;2.10;;;;;;;;;;4994979;28;20030;-51
2021/10/23 11:20:43;;;;;;;2.00;1.42;;;;;;;;;;5012694;28;20073;-49
2021/10/23 11:23:08;;;;;;;4.18;1.73;;;;;;;;;;5012425;28;20033;-48
2021/10/23 11:25:33;;;;;;;2.57;1.50;;;;;;;;;;5013240;28;20033;-49
2021/10/23 11:27:59;;;;;;;3.80;2.17;;;;;;;;;;5012623;28;20095;-51
2021/10/23 11:30:28;;;;;;;1.90;1.53;;;;;;;;;;5012427;28;20022;-48
2021/10/23 11:32:57;;;;;;;2.28;1.70;;;;;;;;;;5015545;28;20049;-49
2021/10/23 11:35:36;;;;;;;3.13;1.92;;;;;;;;;;5037302;28;20104;-48
2021/10/23 11:38:02;;;;;;;4.22;1.75;;;;;;;;;;5035935;28;20032;-53
2021/10/23 11:40:28;;;;;;;2.83;1.90;;;;;;;;;;5031881;28;20140;-48
2021/10/23 11:42:53;;;;;;;3.63;1.67;;;;;;;;;;5029655;28;20552;-53
2021/10/23 11:45:23;;;;;;;2.27;1.60;;;;;;;;;;5020466;28;20520;-50
2021/10/23 11:47:55;;;;;;;2.30;1.42;;;;;;;;;;5029657;28;20054;-48
2021/10/23 11:50:26;;;;;;;2.45;1.58;;;;;;;;;;5032237;28;20452;-51
2021/10/23 11:53:18;;;;;;;3.85;1.73;;;;;;;;;;5036024;28;20046;-53
2021/10/23 11:55:55;;;;;;;1.77;1.65;;;;;;;;;;5029633;28;20045;-52
2021/10/23 11:58:24;;;;;;;2.60;1.65;;;;;;;;;;5030633;28;20029;-50
2021/10/23 12:00:57;;;;;;;1.80;1.40;;;;;;;;;;5031608;28;20026;-53
2021/10/23 12:03:30;;;;;;;2.30;1.50;;;;;;;;;;5013675;28;20450;-52
2021/10/23 12:05:56;;;;;;;2.58;1.30;;;;;;;;;;5026114;28;20029;-52
2021/10/23 12:08:28;;;;;;;2.55;1.55;;;;;;;;;;5045613;28;20032;-51
2021/10/23 12:11:03;;;;;;;1.35;1.25;;;;;;;;;;5049758;28;20078;-51
2021/10/23 12:13:29;;;;;;;2.53;1.48;;;;;;;;;;5049251;28;20045;-52
2021/10/23 12:16:04;;;;;;;2.00;1.40;;;;;;;;;;5049684;28;20064;-51
2021/10/23 12:18:31;;;;;;;2.63;1.57;;;;;;;;;;5037654;28;20457;-52
2021/10/23 12:21:08;;;;;;;1.98;1.27;;;;;;;;;;5029077;28;20040;-50
2021/10/23 12:23:40;;;;;;;2.13;1.40;;;;;;;;;;5028738;28;20030;-52
2021/10/23 12:26:06;;;;;;;2.95;1.40;;;;;;;;;;5030492;28;20338;-48
2021/10/23 12:28:52;;;;;;;4.23;1.50;;;;;;;;;;5032230;28;20544;-51
2021/10/23 12:31:17;;;;;;;1.38;1.00;;;;;;;;;;5032271;28;20056;-49
2021/10/23 12:34:02;;;;;;;2.50;1.60;;;;;;;;;;5037927;28;20061;-50
2021/10/23 12:36:27;;;;;;;1.95;1.40;;;;;;;;;;5051046;28;20399;-50
2021/10/23 12:38:53;;;;;;;1.37;1.23;;;;;;;;;;5045442;28;20025;-52
2021/10/23 12:41:18;;;;;;;2.47;1.53;;;;;;;;;;5024395;28;20021;-55
2021/10/23 12:43:44;;;;;;;1.50;1.17;;;;;;;;;;5048116;28;20032;-51
2021/10/23 12:46:11;;;;;;;1.83;1.23;;;;;;;;;;5029039;28;20067;-52
2021/10/23 12:48:36;;;;;;;2.65;1.50;;;;;;;;;;5038867;28;20032;-53
2021/10/23 12:51:02;;;;;;;2.50;1.50;;;;;;;;;;5028931;28;20045;-53
2021/10/23 12:53:27;;;;;;;2.17;1.37;;;;;;;;;;5025948;28;20036;-56
2021/10/23 12:55:53;;;;;;;3.03;1.63;;;;;;;;;;5013390;28;20029;-56
2021/10/23 12:58:18;;;;;;;1.13;1.03;;;;;;;;;;5021598;28;20025;-55
2021/10/23 13:00:46;;;;;;;1.57;1.27;;;;;;;;;;5021424;28;20032;-51
2021/10/23 13:03:12;;;;;;;3.03;1.42;;;;;;;;;;5023733;28;20030;-51
2021/10/23 13:05:37;;;;;;;2.30;1.47;;;;;;;;;;5028410;28;20511;-54
2021/10/23 13:08:03;;;;;;;1.53;0.90;;;;;;;;;;5030773;28;20100;-52
2021/10/23 13:10:28;;;;;;;1.97;1.20;;;;;;;;;;5022954;28;20060;-50
2021/10/23 13:12:54;;;;;;;2.83;1.40;;;;;;;;;;5023384;28;20037;-52
2021/10/23 13:15:21;;;;;;;1.97;1.00;;;;;;;;;;5014171;28;20022;-52
2021/10/23 13:17:46;;;;;;;2.28;1.10;;;;;;;;;;5012659;28;20081;-49
2021/10/23 13:20:12;;;;;;;1.83;1.10;;;;;;;;;;5016089;28;20034;-52
2021/10/23 13:22:39;;;;;;;4.00;1.40;;;;;;;;;;5023172;28;20555;-52
2021/10/23 13:25:04;;;;;;;1.35;0.95;;;;;;;;;;5022822;28;20388;-52
2021/10/23 13:27:30;;;;;;;1.37;1.10;;;;;;;;;;5028071;28;20104;-53
2021/10/23 13:29:55;;;;;;;4.80;1.33;;;;;;;;;;5024730;28;20022;-51
2021/10/23 13:32:21;;;;;;;2.53;1.27;;;;;;;;;;5024713;28;20064;-49
2021/10/23 13:34:47;;;;;;;1.10;0.90;;;;;;;;;;5029402;28;20030;-49
2021/10/23 13:37:12;;;;;;;2.17;1.20;;;;;;;;;;5014941;28;20402;-51
2021/10/23 13:39:38;;;;;;;2.30;1.30;;;;;;;;;;5018140;28;20077;-53
2021/10/23 13:42:03;;;;;;;1.33;0.90;;;;;;;;;;5031724;28;20097;-52
2021/10/23 13:44:30;;;;;;;1.73;1.00;;;;;;;;;;5014652;28;20036;-51
2021/10/23 13:46:56;;;;;;;1.35;0.93;;;;;;;;;;5014341;28;20018;-53
2021/10/23 13:49:21;;;;;;;3.10;1.30;;;;;;;;;;5028470;28;20042;-52
2021/10/23 13:51:47;;;;;;;0.90;0.90;;;;;;;;;;5016317;28;20120;-50
2021/10/23 13:54:12;;;;;;;1.30;1.10;;;;;;;;;;5018168;28;20506;-49
2021/10/23 13:56:38;;;;;;;1.93;1.27;;;;;;;;;;5022211;28;20025;-51
2021/10/23 13:59:03;;;;;;;1.37;1.23;;;;;;;;;;5034749;28;20032;-49
2021/10/23 14:01:28;;;;;;;1.30;1.10;;;;;;;;;;5035034;28;20025;-50
2021/10/23 14:03:54;;;;;;;1.13;1.00;;;;;;;;;;5016988;28;20064;-51
2021/10/23 14:06:19;;;;;;;1.57;1.20;;;;;;;;;;5045883;28;20442;-49
2021/10/23 14:08:44;;;;;;;2.03;0.93;;;;;;;;;;5015876;28;20027;-51
2021/10/23 14:11:10;;;;;;;2.00;1.33;;;;;;;;;;5034745;28;20455;-50
2021/10/23 14:13:36;;;;;;;1.77;1.10;;;;;;;;;;5050635;28;20036;-53
2021/10/23 14:16:01;;;;;;;1.87;1.40;;;;;;;;;;5045569;28;20025;-48
2021/10/23 14:18:28;;;;;;;1.60;0.77;;;;;;;;;;5035254;28;20713;-48
2021/10/23 14:20:57;;;;;;;2.17;0.85;;;;;;;;;;5047463;28;20032;-54
2021/10/23 14:23:23;;;;;;;2.38;1.30;;;;;;;;;;5033369;28;20542;-48
2021/10/23 14:25:52;;;;;;;2.20;1.30;;;;;;;;;;5036069;28;20069;-49
2021/10/23 14:28:41;;;;;;;1.17;0.80;;;;;;;;;;5042684;28;20038;-49
2021/10/23 14:31:10;;;;;;;2.15;1.10;;;;;;;;;;5043936;28;20022;-51
2021/10/23 14:33:36;;;;;;;1.27;0.88;;;;;;;;;;5046018;28;20030;-49
2021/10/23 14:36:02;;;;;;;0.65;0.65;;;;;;;;;;5044953;28;20036;-49
2021/10/23 14:38:27;;;;;;;0.87;0.70;;;;;;;;;;5016382;28;20029;-49
2021/10/23 14:40:53;;;;;;;1.73;0.90;;;;;;;;;;5032930;28;20025;-49
2021/10/23 14:43:18;;;;;;;0.93;0.60;;;;;;;;;;5016693;28;20033;-48
2021/10/23 14:45:43;;;;;;;2.27;1.20;;;;;;;;;;5032951;28;20100;-49